Terminal Aerodrome Forecast
Issued by NWS Melbourne, FL

Home | Current Version | Previous Version | Text Only | Print | Product List | Glossary On
Versions: 1 2 3 4 5 6 7 8 9 10
378
FTUS42 KMLB 230523
TAFDAB
TAF
KDAB 230523Z 2306/2406 16003KT P6SM SCT060 OVC250
     FM231400 19005KT P6SM SCT030 BKN250
     FM231730 13008KT P6SM SCT035 BKN060
     FM240200 VRB04KT P6SM SCT035 BKN200=

USA.gov is the U.S. government's official web portal to all federal, state and local government web resources and services.